createdAt,value
2018-07-05T00:00:30.125Z,1006.10
2018-07-05T00:01:30.036Z,1006.08
2018-07-05T00:02:29.946Z,1006.07
2018-07-05T00:03:29.856Z,1006.13
2018-07-05T00:04:29.749Z,1006.11
2018-07-05T00:05:29.657Z,1006.14
2018-07-05T00:06:29.571Z,1006.13
2018-07-05T00:07:29.482Z,1006.09
2018-07-05T00:08:29.378Z,1006.08
2018-07-05T00:09:29.288Z,1006.07
2018-07-05T00:10:29.193Z,1006.06
2018-07-05T00:11:29.090Z,1006.06
2018-07-05T00:12:29.002Z,1006.03
2018-07-05T00:13:28.910Z,1006.03
2018-07-05T00:14:28.804Z,1006.03
2018-07-05T00:15:28.713Z,1006.06
2018-07-05T00:16:28.623Z,1006.08
2018-07-05T00:17:28.534Z,1006.06
2018-07-05T00:18:28.433Z,1006.09
2018-07-05T00:19:28.342Z,1006.08
2018-07-05T00:20:28.252Z,1006.11
2018-07-05T00:21:28.160Z,1006.12
2018-07-05T00:22:28.053Z,1006.07
2018-07-05T00:23:27.968Z,1006.13
2018-07-05T00:24:27.870Z,1006.08
2018-07-05T00:25:27.766Z,1006.05
2018-07-05T00:26:27.930Z,1006.08
2018-07-05T00:27:27.589Z,1006.06
2018-07-05T00:28:27.484Z,1006.07
2018-07-05T00:29:27.393Z,1006.06
2018-07-05T00:30:27.306Z,1006.06
2018-07-05T00:31:27.215Z,1006.03
2018-07-05T00:32:27.110Z,1006.06
2018-07-05T00:33:27.018Z,1006.04
2018-07-05T00:34:26.925Z,1006.02
2018-07-05T00:35:26.821Z,1006.02
2018-07-05T00:36:26.734Z,1006.00
2018-07-05T00:37:26.644Z,1006.02
2018-07-05T00:38:26.536Z,1006.01
2018-07-05T00:39:26.446Z,1005.99
2018-07-05T00:40:26.356Z,1006.04
2018-07-05T00:41:26.265Z,1006.03
2018-07-05T00:42:26.169Z,1006.04
2018-07-05T00:43:26.076Z,1006.03
2018-07-05T00:44:25.978Z,1006.04
2018-07-05T00:45:25.874Z,1006.04
2018-07-05T00:46:25.789Z,1006.04
2018-07-05T00:47:25.696Z,1006.06
2018-07-05T00:48:25.600Z,1006.01
2018-07-05T00:49:25.506Z,1006.02
2018-07-05T00:50:25.409Z,1005.99
2018-07-05T00:51:25.308Z,1005.98
2018-07-05T00:52:25.221Z,1006.02
2018-07-05T00:53:25.142Z,1006.02
2018-07-05T00:54:25.060Z,1006.05
2018-07-05T00:55:24.932Z,1006.01
2018-07-05T00:56:24.849Z,1006.03
2018-07-05T00:57:24.748Z,1006.01
2018-07-05T00:58:24.649Z,1006.04
2018-07-05T00:59:24.559Z,1006.04
2018-07-05T01:00:24.465Z,1005.99
2018-07-05T01:01:24.362Z,1005.98
2018-07-05T01:02:24.275Z,1005.94
2018-07-05T01:03:24.185Z,1005.95
2018-07-05T01:04:24.090Z,1005.91
2018-07-05T01:05:23.987Z,1005.91
2018-07-05T01:06:24.192Z,1005.88
2018-07-05T01:07:23.801Z,1005.90
2018-07-05T01:08:23.702Z,1005.92
2018-07-05T01:09:23.613Z,1005.89
2018-07-05T01:10:23.516Z,1005.93
2018-07-05T01:11:23.413Z,1005.91
2018-07-05T01:12:23.325Z,1005.92
2018-07-05T01:13:23.234Z,1005.95
2018-07-05T01:14:23.134Z,1005.91
2018-07-05T01:15:23.044Z,1005.93
2018-07-05T01:16:22.947Z,1005.91
2018-07-05T01:17:22.843Z,1005.93
2018-07-05T01:18:22.758Z,1005.93
2018-07-05T01:19:22.666Z,1005.95
2018-07-05T01:20:22.565Z,1005.92
2018-07-05T01:21:22.475Z,1005.92
2018-07-05T01:22:22.379Z,1005.93
2018-07-05T01:23:22.276Z,1005.95
2018-07-05T01:24:22.187Z,1005.94
2018-07-05T01:25:22.095Z,1005.97
2018-07-05T01:26:21.989Z,1005.95
2018-07-05T01:27:21.899Z,1005.96
2018-07-05T01:28:21.808Z,1005.96
2018-07-05T01:29:21.707Z,1005.95
2018-07-05T01:30:21.625Z,1005.93
2018-07-05T01:31:21.528Z,1005.92
2018-07-05T01:32:21.420Z,1005.93
2018-07-05T01:33:21.328Z,1005.90
2018-07-05T01:34:21.244Z,1005.94
2018-07-05T01:35:21.139Z,1005.91
2018-07-05T01:36:21.056Z,1005.89
2018-07-05T01:37:20.957Z,1005.90
2018-07-05T01:38:20.854Z,1005.92
2018-07-05T01:39:20.760Z,1005.91
2018-07-05T01:40:20.673Z,1005.89
2018-07-05T01:41:20.836Z,1005.87
2018-07-05T01:42:20.480Z,1005.84
2018-07-05T01:43:20.384Z,1005.84
2018-07-05T01:44:20.281Z,1005.84
2018-07-05T01:45:20.190Z,1005.85
2018-07-05T01:46:20.104Z,1005.84
2018-07-05T01:47:19.999Z,1005.81
2018-07-05T01:48:19.905Z,1005.82
2018-07-05T01:49:19.814Z,1005.82
2018-07-05T01:50:19.716Z,1005.81
2018-07-05T01:51:19.627Z,1005.81
2018-07-05T01:52:19.533Z,1005.86
2018-07-05T01:53:19.429Z,1005.84
2018-07-05T01:54:19.338Z,1005.85
2018-07-05T01:55:19.243Z,1005.87
2018-07-05T01:56:19.145Z,1005.83
2018-07-05T01:57:19.053Z,1005.85
2018-07-05T01:58:18.960Z,1005.82
2018-07-05T01:59:18.856Z,1005.80
2018-07-05T02:00:18.769Z,1005.78
2018-07-05T02:01:18.675Z,1005.79
2018-07-05T02:02:18.578Z,1005.75
2018-07-05T02:03:18.486Z,1005.76
2018-07-05T02:04:18.389Z,1005.74
2018-07-05T02:05:18.285Z,1005.69
2018-07-05T02:06:18.198Z,1005.71
2018-07-05T02:07:18.120Z,1005.72
2018-07-05T02:08:18.006Z,1005.71
2018-07-05T02:09:17.916Z,1005.68
2018-07-05T02:10:17.820Z,1005.73
2018-07-05T02:11:17.716Z,1005.75
2018-07-05T02:12:17.630Z,1005.73
2018-07-05T02:13:17.539Z,1005.76
2018-07-05T02:14:17.432Z,1005.76
2018-07-05T02:15:17.341Z,1005.77
2018-07-05T02:16:17.261Z,1005.75
2018-07-05T02:17:17.144Z,1005.76
2018-07-05T02:18:17.059Z,1005.72
2018-07-05T02:19:16.956Z,1005.75
2018-07-05T02:20:16.864Z,1005.77
2018-07-05T02:21:16.772Z,1005.79
2018-07-05T02:22:16.677Z,1005.77
2018-07-05T02:23:16.581Z,1005.81
2018-07-05T02:24:16.490Z,1005.78
2018-07-05T02:25:16.386Z,1005.79
2018-07-05T02:26:16.290Z,1005.77
2018-07-05T02:27:16.201Z,1005.73
2018-07-05T02:28:16.103Z,1005.74
2018-07-05T02:29:16.012Z,1005.73
2018-07-05T02:30:15.917Z,1005.74
2018-07-05T02:31:15.814Z,1005.75
2018-07-05T02:32:15.721Z,1005.77
2018-07-05T02:33:15.631Z,1005.74
2018-07-05T02:34:15.532Z,1005.76
2018-07-05T02:35:15.440Z,1005.76
2018-07-05T02:36:15.336Z,1005.72
2018-07-05T02:37:15.247Z,1005.75
2018-07-05T02:38:15.157Z,1005.75
2018-07-05T02:39:15.054Z,1005.72
2018-07-05T02:40:14.961Z,1005.70
2018-07-05T02:41:15.120Z,1005.72
2018-07-05T02:42:14.762Z,1005.71
2018-07-05T02:43:14.673Z,1005.74
2018-07-05T02:44:14.585Z,1005.72
2018-07-05T02:45:14.482Z,1005.72
2018-07-05T02:46:14.387Z,1005.67
2018-07-05T02:47:14.305Z,1005.72
2018-07-05T02:48:14.195Z,1005.71
2018-07-05T02:49:14.104Z,1005.68
2018-07-05T02:50:14.005Z,1005.68
2018-07-05T02:51:13.920Z,1005.70
2018-07-05T02:52:13.818Z,1005.69
2018-07-05T02:53:13.715Z,1005.67
2018-07-05T02:54:13.627Z,1005.68
2018-07-05T02:55:13.536Z,1005.72
2018-07-05T02:56:13.437Z,1005.72
2018-07-05T02:57:13.348Z,1005.70
2018-07-05T02:58:13.250Z,1005.66
2018-07-05T02:59:13.147Z,1005.66
2018-07-05T03:00:13.059Z,1005.70
2018-07-05T03:01:13.208Z,1005.64
2018-07-05T03:02:12.862Z,1005.70
2018-07-05T03:03:12.771Z,1005.68
2018-07-05T03:04:12.665Z,1005.68
2018-07-05T03:05:12.576Z,1005.70
2018-07-05T03:06:12.488Z,1005.71
2018-07-05T03:07:12.384Z,1005.69
2018-07-05T03:08:12.300Z,1005.67
2018-07-05T03:09:12.201Z,1005.74
2018-07-05T03:10:12.101Z,1005.72
2018-07-05T03:11:12.012Z,1005.74
2018-07-05T03:12:11.922Z,1005.79
2018-07-05T03:13:11.814Z,1005.78
2018-07-05T03:14:11.720Z,1005.79
2018-07-05T03:15:11.631Z,1005.82
2018-07-05T03:16:11.529Z,1005.82
2018-07-05T03:17:11.440Z,1005.83
2018-07-05T03:18:11.334Z,1005.83
2018-07-05T03:19:11.241Z,1005.85
2018-07-05T03:20:11.152Z,1005.85
2018-07-05T03:21:11.049Z,1005.83
2018-07-05T03:22:10.961Z,1005.87
2018-07-05T03:23:10.872Z,1005.81
2018-07-05T03:24:10.763Z,1005.84
2018-07-05T03:25:10.671Z,1005.85
2018-07-05T03:26:10.584Z,1005.82
2018-07-05T03:27:10.481Z,1005.86
2018-07-05T03:28:10.393Z,1005.87
2018-07-05T03:29:10.302Z,1005.87
2018-07-05T03:32:53.397Z,1005.85
2018-07-05T03:33:53.295Z,1005.80
2018-07-05T03:34:53.204Z,1005.80
2018-07-05T03:35:53.112Z,1005.79
2018-07-05T03:36:53.011Z,1005.79
2018-07-05T03:37:52.919Z,1005.82
2018-07-05T03:38:52.829Z,1005.78
2018-07-05T03:40:38.692Z,1005.82
2018-07-05T03:40:52.642Z,1005.81
2018-07-05T03:42:25.758Z,1005.82
2018-07-05T03:42:52.456Z,1005.78
2018-07-05T03:43:52.347Z,1005.83
2018-07-05T03:44:52.255Z,1005.81
2018-07-05T03:45:52.171Z,1005.85
2018-07-05T03:46:52.077Z,1005.90
2018-07-05T03:47:51.970Z,1005.86
2018-07-05T03:48:51.881Z,1005.84
2018-07-05T03:49:51.791Z,1005.84
2018-07-05T03:50:51.689Z,1005.84
2018-07-05T03:51:51.601Z,1005.86
2018-07-05T03:52:51.510Z,1005.81
2018-07-05T03:53:51.420Z,1005.83
2018-07-05T03:54:51.310Z,1005.83
2018-07-05T03:55:51.223Z,1005.83
2018-07-05T03:56:51.133Z,1005.82
2018-07-05T03:57:51.343Z,1005.81
2018-07-05T03:58:50.942Z,1005.82
2018-07-05T03:59:50.845Z,1005.79
2018-07-05T04:00:50.756Z,1005.78
2018-07-05T04:01:50.668Z,1005.76
2018-07-05T04:02:50.590Z,1005.84
2018-07-05T04:03:50.471Z,1005.78
2018-07-05T04:04:50.379Z,1005.77
2018-07-05T04:05:50.285Z,1005.76
2018-07-05T04:06:50.196Z,1005.82
2018-07-05T04:07:50.107Z,1005.82
2018-07-05T04:08:50.006Z,1005.85
2018-07-05T04:10:09.122Z,1005.87
2018-07-05T04:10:49.822Z,1005.82
2018-07-05T04:11:49.730Z,1005.84
2018-07-05T04:12:49.639Z,1005.82
2018-07-05T04:13:49.540Z,1005.85
2018-07-05T04:14:49.446Z,1005.82
2018-07-05T04:15:49.404Z,1005.84
2018-07-05T04:16:49.264Z,1005.81
2018-07-05T04:17:49.173Z,1005.84
2018-07-05T04:18:49.083Z,1005.83
2018-07-05T04:20:01.736Z,1005.81
2018-07-05T04:20:48.898Z,1005.86
2018-07-05T04:23:32.346Z,1005.84
2018-07-05T04:24:32.002Z,1005.85
2018-07-05T04:25:31.910Z,1005.82
2018-07-05T04:26:31.817Z,1005.85
2018-07-05T04:27:31.726Z,1005.85
2018-07-05T04:28:31.642Z,1005.85
2018-07-05T04:29:31.537Z,1005.85
2018-07-05T04:30:31.443Z,1005.88
2018-07-05T04:31:31.352Z,1005.89
2018-07-05T04:32:31.266Z,1005.87
2018-07-05T04:33:31.174Z,1005.90
2018-07-05T04:34:31.084Z,1005.88
2018-07-05T04:35:30.991Z,1005.88
2018-07-05T04:36:30.897Z,1005.88
2018-07-05T04:37:30.805Z,1005.88
2018-07-05T04:38:30.706Z,1005.91
2018-07-05T04:39:30.619Z,1005.91
2018-07-05T04:40:30.521Z,1005.88
2018-07-05T04:41:30.431Z,1005.90
2018-07-05T04:42:30.367Z,1005.88
2018-07-05T04:43:30.252Z,1005.92
2018-07-05T04:44:30.161Z,1005.92
2018-07-05T04:45:30.070Z,1005.92
2018-07-05T04:46:29.977Z,1005.92
2018-07-05T04:47:29.886Z,1005.98
2018-07-05T04:48:29.787Z,1005.96
2018-07-05T04:49:29.694Z,1005.89
2018-07-05T04:50:29.607Z,1005.94
2018-07-05T04:51:29.516Z,1005.99
2018-07-05T04:52:29.421Z,1005.99
2018-07-05T04:53:29.330Z,1005.99
2018-07-05T04:54:29.243Z,1006.02
2018-07-05T04:55:29.160Z,1006.00
2018-07-05T04:56:29.058Z,1005.99
2018-07-05T04:57:28.967Z,1006.00
2018-07-05T04:58:29.123Z,1006.03
2018-07-05T04:59:28.782Z,1006.01
2018-07-05T05:00:28.687Z,1006.04
2018-07-05T05:01:28.597Z,1005.99
2018-07-05T05:02:28.561Z,1006.00
2018-07-05T05:03:28.409Z,1005.96
2018-07-05T05:04:28.322Z,1005.98
2018-07-05T05:05:28.231Z,1006.02
2018-07-05T05:06:28.138Z,1006.02
2018-07-05T05:07:28.049Z,1006.02
2018-07-05T05:08:27.952Z,1006.05
2018-07-05T05:09:27.862Z,1006.05
2018-07-05T05:10:27.775Z,1006.05
2018-07-05T05:11:27.685Z,1005.96
2018-07-05T05:12:27.589Z,1005.98
2018-07-05T05:13:27.499Z,1005.96
2018-07-05T05:14:27.409Z,1005.96
2018-07-05T05:15:27.319Z,1005.95
2018-07-05T05:16:27.232Z,1005.96
2018-07-05T05:17:27.142Z,1005.96
2018-07-05T05:18:27.044Z,1005.98
2018-07-05T05:19:26.954Z,1005.96
2018-07-05T05:20:26.881Z,1005.98
2018-07-05T05:21:26.779Z,1005.97
2018-07-05T05:22:26.687Z,1005.98
2018-07-05T05:23:26.858Z,1005.91
2018-07-05T05:24:26.516Z,1005.98
2018-07-05T05:25:26.424Z,1005.94
2018-07-05T05:26:26.335Z,1005.97
2018-07-05T05:27:26.244Z,1005.98
2018-07-05T05:28:26.149Z,1005.99
2018-07-05T05:29:26.057Z,1006.01
2018-07-05T05:30:25.981Z,1006.01
2018-07-05T05:31:25.895Z,1005.98
2018-07-05T05:32:25.817Z,1005.96
2018-07-05T05:33:25.713Z,1005.97
2018-07-05T05:34:25.616Z,1005.96
2018-07-05T05:35:25.541Z,1005.95
2018-07-05T05:36:25.452Z,1005.94
2018-07-05T05:37:25.362Z,1005.91
2018-07-05T05:38:25.272Z,1005.90
2018-07-05T05:39:25.183Z,1005.91
2018-07-05T05:40:25.112Z,1005.94
2018-07-05T05:41:25.009Z,1005.96
2018-07-05T05:42:24.922Z,1005.95
2018-07-05T05:43:25.093Z,1005.97
2018-07-05T05:44:24.748Z,1005.97
2018-07-05T05:45:24.659Z,1005.96
2018-07-05T05:46:24.564Z,1005.94
2018-07-05T05:47:24.486Z,1005.95
2018-07-05T05:48:24.400Z,1005.95
2018-07-05T05:49:24.309Z,1005.98
2018-07-05T05:50:24.228Z,1006.00
2018-07-05T05:51:24.137Z,1005.95
2018-07-05T05:52:24.053Z,1005.96
2018-07-05T05:53:23.979Z,1005.99
2018-07-05T05:54:23.879Z,1005.99
2018-07-05T05:55:23.789Z,1005.99
2018-07-05T05:56:23.707Z,1006.00
2018-07-05T05:57:23.615Z,1006.02
2018-07-05T05:58:23.804Z,1006.01
2018-07-05T05:59:23.451Z,1006.02
2018-07-05T06:00:23.358Z,1006.04
2018-07-05T06:01:23.277Z,1006.03
2018-07-05T06:02:23.192Z,1006.07
2018-07-05T06:03:23.098Z,1006.07
2018-07-05T06:04:23.023Z,1006.08
2018-07-05T06:05:22.933Z,1006.08
2018-07-05T06:06:22.848Z,1006.05
2018-07-05T06:07:22.756Z,1006.07
2018-07-05T06:08:22.683Z,1006.09
2018-07-05T06:09:22.592Z,1006.06
2018-07-05T06:10:22.504Z,1006.09
2018-07-05T06:11:22.426Z,1006.08
2018-07-05T06:12:22.330Z,1006.09
2018-07-05T06:13:22.252Z,1006.10
2018-07-05T06:14:22.166Z,1006.14
2018-07-05T06:15:22.107Z,1006.13
2018-07-05T06:16:21.993Z,1006.15
2018-07-05T06:17:21.913Z,1006.16
2018-07-05T06:18:21.820Z,1006.18
2018-07-05T06:19:21.742Z,1006.22
2018-07-05T06:20:21.656Z,1006.20
2018-07-05T06:21:21.613Z,1006.23
2018-07-05T06:22:21.486Z,1006.20
2018-07-05T06:23:21.406Z,1006.24
2018-07-05T06:24:21.320Z,1006.23
2018-07-05T06:25:21.242Z,1006.20
2018-07-05T06:26:21.149Z,1006.21
2018-07-05T06:27:21.070Z,1006.25
2018-07-05T06:28:20.976Z,1006.21
2018-07-05T06:29:20.898Z,1006.19
2018-07-05T06:30:20.820Z,1006.17
2018-07-05T06:31:20.744Z,1006.20
2018-07-05T06:32:20.653Z,1006.22
2018-07-05T06:33:20.564Z,1006.20
2018-07-05T06:34:20.487Z,1006.20
2018-07-05T06:35:20.408Z,1006.21
2018-07-05T06:36:20.313Z,1006.18
2018-07-05T06:37:20.235Z,1006.19
2018-07-05T06:38:20.151Z,1006.21
2018-07-05T06:39:20.094Z,1006.23
2018-07-05T06:40:19.986Z,1006.18
2018-07-05T06:41:19.895Z,1006.15
2018-07-05T06:42:19.819Z,1006.17
2018-07-05T06:43:19.990Z,1006.13
2018-07-05T06:44:19.657Z,1006.13
2018-07-05T06:45:19.587Z,1006.11
2018-07-05T06:46:19.480Z,1006.16
2018-07-05T06:47:19.438Z,1006.16
2018-07-05T06:48:19.315Z,1006.26
2018-07-05T06:49:19.278Z,1006.24
2018-07-05T06:50:19.157Z,1006.21
2018-07-05T06:51:19.078Z,1006.19
2018-07-05T06:52:18.984Z,1006.17
2018-07-05T06:53:18.893Z,1006.20
2018-07-05T06:54:18.821Z,1006.25
2018-07-05T06:55:18.729Z,1006.23
2018-07-05T06:56:18.647Z,1006.24
2018-07-05T06:57:18.557Z,1006.19
2018-07-05T06:58:18.476Z,1006.26
2018-07-05T06:59:18.474Z,1006.26
2018-07-05T07:00:18.311Z,1006.20
2018-07-05T07:01:18.232Z,1006.30
2018-07-05T07:02:18.138Z,1006.30
2018-07-05T07:03:18.064Z,1006.34
2018-07-05T07:04:17.972Z,1006.37
2018-07-05T07:05:17.894Z,1006.36
2018-07-05T07:06:17.807Z,1006.39
2018-07-05T07:07:17.727Z,1006.35
2018-07-05T07:08:17.645Z,1006.37
2018-07-05T07:09:17.553Z,1006.37
2018-07-05T07:10:17.479Z,1006.42
2018-07-05T07:11:17.399Z,1006.45
2018-07-05T07:12:17.305Z,1006.49
2018-07-05T07:13:17.226Z,1006.46
2018-07-05T07:14:17.137Z,1006.46
2018-07-05T07:15:17.063Z,1006.43
2018-07-05T07:16:16.986Z,1006.46
2018-07-05T07:17:16.895Z,1006.46
2018-07-05T18:22:21.839Z,1004.47
2018-07-05T18:23:21.756Z,1004.51
2018-07-05T18:24:21.664Z,1004.55
2018-07-05T18:25:21.575Z,1004.54
2018-07-05T18:26:21.485Z,1004.57
2018-07-05T18:27:21.395Z,1004.54
2018-07-05T18:28:21.303Z,1004.64
2018-07-05T18:29:21.214Z,1004.60
2018-07-05T18:30:21.118Z,1004.69
2018-07-05T18:31:21.033Z,1004.63
2018-07-05T18:32:20.954Z,1004.65
2018-07-05T18:33:20.864Z,1004.66
2018-07-05T18:34:20.774Z,1004.66
2018-07-05T18:35:20.678Z,1004.70
2018-07-05T18:36:20.589Z,1004.66
2018-07-05T18:37:20.502Z,1004.72
2018-07-05T18:38:20.409Z,1004.75
2018-07-05T18:39:20.313Z,1004.75
2018-07-05T18:40:20.224Z,1004.75
2018-07-05T18:41:20.147Z,1004.77
2018-07-05T18:42:20.056Z,1004.78
2018-07-05T18:43:19.969Z,1004.85
2018-07-05T18:44:19.877Z,1004.77
2018-07-05T18:45:19.783Z,1004.87
2018-07-05T18:46:19.692Z,1004.83
2018-07-05T18:47:19.611Z,1004.85
2018-07-05T18:48:19.515Z,1004.87
2018-07-05T18:49:19.422Z,1004.84
2018-07-05T18:50:19.330Z,1004.91
2018-07-05T18:51:19.237Z,1004.89
2018-07-05T18:52:19.145Z,1004.92
2018-07-05T18:53:19.061Z,1004.91
2018-07-05T18:54:18.984Z,1004.89
2018-07-05T18:55:18.887Z,1004.91
2018-07-05T18:56:18.799Z,1004.89
2018-07-05T18:57:18.953Z,1004.93
2018-07-05T18:58:18.666Z,1004.91
2018-07-05T18:59:18.530Z,1004.96
2018-07-05T19:00:18.436Z,1004.95
2018-07-05T19:01:18.340Z,1004.95
2018-07-05T19:02:18.250Z,1004.90
2018-07-05T19:03:18.163Z,1004.95
2018-07-05T19:04:18.073Z,1004.97
2018-07-05T19:05:17.984Z,1004.94
2018-07-05T19:06:17.894Z,1004.97
2018-07-05T19:07:17.798Z,1004.98
2018-07-05T19:08:17.708Z,1004.98
2018-07-05T19:09:17.620Z,1004.99
2018-07-05T19:10:17.540Z,1004.99
2018-07-05T19:11:17.445Z,1005.02
2018-07-05T19:12:17.354Z,1005.05
2018-07-05T19:13:17.265Z,1005.06
2018-07-05T19:14:17.174Z,1005.04
2018-07-05T19:15:17.088Z,1005.11
2018-07-05T19:16:17.036Z,1005.09
2018-07-05T19:17:17.158Z,1005.15
2018-07-05T19:18:16.815Z,1005.14
2018-07-05T19:19:16.720Z,1005.15
2018-07-05T19:20:16.631Z,1005.15
2018-07-05T19:21:16.622Z,1005.18
2018-07-05T19:22:16.446Z,1005.18
2018-07-05T19:23:16.360Z,1005.25
2018-07-05T19:24:16.268Z,1005.29
2018-07-05T19:25:16.176Z,1005.28
2018-07-05T19:26:16.085Z,1005.31
2018-07-05T19:27:16.011Z,1005.30
2018-07-05T19:28:15.907Z,1005.35
2018-07-05T19:29:15.816Z,1005.35
2018-07-05T19:30:15.736Z,1005.37
2018-07-05T19:31:15.634Z,1005.31
2018-07-05T19:32:15.539Z,1005.35
2018-07-05T19:33:15.541Z,1005.32
2018-07-05T19:34:15.391Z,1005.38
2018-07-05T19:35:15.278Z,1005.40
2018-07-05T19:36:15.188Z,1005.40
2018-07-05T19:37:15.112Z,1005.40
2018-07-05T19:38:15.009Z,1005.39
2018-07-05T19:39:14.922Z,1005.38
2018-07-05T19:40:14.832Z,1005.42
2018-07-05T19:41:14.733Z,1005.40
2018-07-05T19:42:14.652Z,1005.40
2018-07-05T19:43:14.556Z,1005.46
2018-07-05T19:44:14.466Z,1005.45
2018-07-05T19:45:14.377Z,1005.44
2018-07-05T19:46:14.286Z,1005.45
2018-07-05T19:47:14.193Z,1005.49
2018-07-05T19:48:14.103Z,1005.50
2018-07-05T19:49:14.015Z,1005.52
2018-07-05T19:50:13.924Z,1005.49
2018-07-05T19:51:13.828Z,1005.53
2018-07-05T19:52:13.737Z,1005.48
2018-07-05T19:53:13.656Z,1005.52
2018-07-05T19:54:13.554Z,1005.53
2018-07-05T19:55:13.467Z,1005.51
2018-07-05T19:56:13.376Z,1005.56
2018-07-05T19:57:13.305Z,1005.52
2018-07-05T19:58:13.192Z,1005.53
2018-07-05T19:59:13.105Z,1005.57
2018-07-05T20:00:13.015Z,1005.54
2018-07-05T20:01:12.921Z,1005.54
2018-07-05T20:02:12.832Z,1005.53
2018-07-05T20:03:12.736Z,1005.56
2018-07-05T20:04:12.633Z,1005.61
2018-07-05T20:05:12.559Z,1005.65
2018-07-05T20:06:12.456Z,1005.65
2018-07-05T20:07:12.406Z,1005.72
2018-07-05T20:08:12.270Z,1005.72
2018-07-05T20:09:12.217Z,1005.76
2018-07-05T20:10:12.090Z,1005.74
2018-07-05T20:11:12.004Z,1005.75
2018-07-05T20:12:11.912Z,1005.78
2018-07-05T20:13:11.819Z,1005.78
2018-07-05T20:14:11.724Z,1005.79
2018-07-05T20:15:11.638Z,1005.82
2018-07-05T20:16:11.546Z,1005.80
2018-07-05T20:17:11.461Z,1005.87
2018-07-05T20:18:11.367Z,1005.83
2018-07-05T20:19:11.272Z,1005.84
2018-07-05T20:20:11.183Z,1005.85
2018-07-05T20:21:11.093Z,1005.83
2018-07-05T20:22:11.008Z,1005.86
2018-07-05T20:23:10.907Z,1005.80
2018-07-05T20:24:10.815Z,1005.82
2018-07-05T20:25:10.728Z,1005.84
2018-07-05T20:26:10.636Z,1005.87
2018-07-05T20:27:10.550Z,1005.87
2018-07-05T20:28:10.512Z,1005.90
2018-07-05T20:29:10.363Z,1005.88
2018-07-05T20:30:10.316Z,1005.89
2018-07-05T20:31:10.174Z,1005.88
2018-07-05T20:32:10.082Z,1005.96
2018-07-05T20:33:09.993Z,1005.89
2018-07-05T20:34:09.902Z,1005.91
2018-07-05T20:35:09.806Z,1005.92
2018-07-05T20:36:09.718Z,1005.91
2018-07-05T20:37:09.629Z,1005.89
2018-07-05T20:38:09.542Z,1005.96
2018-07-05T20:39:09.443Z,1005.88
2018-07-05T20:40:09.354Z,1005.92
2018-07-05T20:41:09.259Z,1005.94
2018-07-05T20:42:09.168Z,1005.92
2018-07-05T20:43:09.082Z,1005.97
2018-07-05T20:44:08.991Z,1005.93
2018-07-05T20:45:08.898Z,1006.03
2018-07-05T20:46:08.808Z,1006.00
2018-07-05T20:47:08.960Z,1005.99
2018-07-05T20:48:08.622Z,1006.09
2018-07-05T20:49:08.525Z,1006.01
2018-07-05T20:50:08.433Z,1006.03
2018-07-05T20:51:08.340Z,1006.07
2018-07-05T20:52:08.248Z,1006.04
2018-07-05T20:53:08.162Z,1006.09
2018-07-05T20:54:08.070Z,1006.09
2018-07-05T20:55:07.975Z,1006.08
2018-07-05T20:56:07.884Z,1006.11
2018-07-05T20:57:08.096Z,1006.05
2018-07-05T20:58:07.704Z,1006.09
2018-07-05T20:59:07.690Z,1006.12
2018-07-05T21:00:07.516Z,1006.14
2018-07-05T21:01:07.418Z,1006.17
2018-07-05T21:02:07.329Z,1006.17
2018-07-05T21:03:07.241Z,1006.22
2018-07-05T21:04:07.151Z,1006.27
2018-07-05T21:05:07.061Z,1006.27
2018-07-05T21:06:06.970Z,1006.32
2018-07-05T21:07:06.876Z,1006.32
2018-07-05T21:08:06.780Z,1006.32
2018-07-05T21:09:06.686Z,1006.37
2018-07-05T21:10:06.594Z,1006.37
2018-07-05T21:11:06.500Z,1006.30
2018-07-05T21:12:06.407Z,1006.40
2018-07-05T21:13:06.316Z,1006.40
2018-07-05T21:14:06.225Z,1006.39
2018-07-05T21:15:06.140Z,1006.43
2018-07-05T21:16:06.047Z,1006.43
2018-07-05T21:17:05.943Z,1006.47
2018-07-05T21:18:05.894Z,1006.49
2018-07-05T21:19:05.764Z,1006.46
2018-07-05T21:20:05.674Z,1006.46
2018-07-05T21:21:05.581Z,1006.50
2018-07-05T21:22:05.741Z,1006.55
2018-07-05T21:23:05.394Z,1006.49
2018-07-05T21:24:05.305Z,1006.52
2018-07-05T21:25:05.215Z,1006.50
2018-07-05T21:26:05.112Z,1006.50
2018-07-05T21:27:05.038Z,1006.56
2018-07-05T21:28:04.934Z,1006.57
2018-07-05T21:29:04.842Z,1006.56
2018-07-05T21:30:04.750Z,1006.58
2018-07-05T21:31:04.657Z,1006.65
2018-07-05T21:32:04.570Z,1006.67
2018-07-05T21:33:04.470Z,1006.69
2018-07-05T21:34:04.378Z,1006.71
2018-07-05T21:35:04.283Z,1006.74
2018-07-05T21:36:04.192Z,1006.76
2018-07-05T21:37:04.101Z,1006.74
2018-07-05T21:38:04.009Z,1006.79
2018-07-05T21:39:03.934Z,1006.80
2018-07-05T21:40:03.830Z,1006.84
2018-07-05T21:41:03.727Z,1006.85
2018-07-05T21:42:03.632Z,1006.88
2018-07-05T21:43:03.545Z,1006.90
2018-07-05T21:44:03.454Z,1006.91
2018-07-05T21:45:03.367Z,1006.89
2018-07-05T21:46:03.274Z,1006.94
2018-07-05T21:47:03.172Z,1006.96
2018-07-05T21:48:03.092Z,1006.96
2018-07-05T21:49:02.988Z,1006.96
2018-07-05T21:50:02.898Z,1006.97
2018-07-05T21:51:02.802Z,1006.95
2018-07-05T21:52:02.714Z,1006.98
2018-07-05T21:53:02.623Z,1006.97
2018-07-05T21:54:02.523Z,1006.95
2018-07-05T21:55:02.434Z,1006.97
2018-07-05T21:56:02.343Z,1006.99
2018-07-05T21:57:02.249Z,1007.00
2018-07-05T21:58:02.157Z,1006.98
2018-07-05T21:59:02.071Z,1007.00
2018-07-05T22:00:01.967Z,1007.01
2018-07-05T22:01:01.875Z,1006.99
2018-07-05T22:02:01.784Z,1006.97
2018-07-05T22:03:01.688Z,1007.01
2018-07-05T22:04:01.598Z,1007.01
2018-07-05T22:05:01.512Z,1006.99
2018-07-05T22:06:01.411Z,1006.99
2018-07-05T22:07:01.317Z,1007.02
2018-07-05T22:08:01.225Z,1007.00
2018-07-05T22:09:01.133Z,1007.03
2018-07-05T22:10:01.041Z,1007.01
2018-07-05T22:11:00.953Z,1007.01
2018-07-05T22:12:00.852Z,1007.04
2018-07-05T22:13:00.755Z,1007.03
2018-07-05T22:14:00.665Z,1007.02
2018-07-05T22:15:00.577Z,1007.08
2018-07-05T22:16:00.487Z,1007.05
2018-07-05T22:17:00.397Z,1006.99
2018-07-05T22:18:00.294Z,1007.02
2018-07-05T22:19:00.200Z,1007.07
2018-07-05T22:20:00.109Z,1007.07
2018-07-05T22:21:00.020Z,1007.15
2018-07-05T22:22:00.228Z,1007.14
2018-07-05T22:22:59.822Z,1007.13
2018-07-05T22:23:59.735Z,1007.17
2018-07-05T22:24:59.641Z,1007.16
2018-07-05T22:25:59.591Z,1007.15
2018-07-05T22:26:59.463Z,1007.21
2018-07-05T22:27:59.361Z,1007.16
2018-07-05T22:28:59.265Z,1007.18
2018-07-05T22:29:59.173Z,1007.18
2018-07-05T22:30:59.089Z,1007.20
2018-07-05T22:31:58.998Z,1007.18
2018-07-05T22:32:58.894Z,1007.18
2018-07-05T22:33:58.806Z,1007.21
2018-07-05T22:34:58.708Z,1007.21
2018-07-05T22:35:58.618Z,1007.21
2018-07-05T22:36:58.528Z,1007.21
2018-07-05T22:37:58.425Z,1007.21
2018-07-05T22:38:58.337Z,1007.20
2018-07-05T22:39:58.239Z,1007.24
2018-07-05T22:40:58.152Z,1007.25
2018-07-05T22:41:58.050Z,1007.26
2018-07-05T22:42:57.974Z,1007.28
2018-07-05T22:43:57.870Z,1007.25
2018-07-05T22:44:57.775Z,1007.25
2018-07-05T22:45:57.685Z,1007.29
2018-07-05T22:46:57.862Z,1007.31
2018-07-05T22:47:57.494Z,1007.31
2018-07-05T22:48:57.404Z,1007.33
2018-07-05T22:49:57.314Z,1007.35
2018-07-05T22:50:57.204Z,1007.31
2018-07-05T22:51:57.113Z,1007.31
2018-07-05T22:52:57.027Z,1007.33
2018-07-05T22:53:56.938Z,1007.35
2018-07-05T22:54:56.831Z,1007.34
2018-07-05T22:55:56.739Z,1007.30
2018-07-05T22:56:56.647Z,1007.37
2018-07-05T22:57:56.558Z,1007.38
2018-07-05T22:58:56.469Z,1007.41
2018-07-05T22:59:56.366Z,1007.40
2018-07-05T23:00:56.270Z,1007.38
2018-07-05T23:01:56.181Z,1007.41
2018-07-05T23:02:56.107Z,1007.42
2018-07-05T23:03:55.989Z,1007.47
2018-07-05T23:04:55.902Z,1007.42
2018-07-05T23:05:55.811Z,1007.39
2018-07-05T23:06:55.716Z,1007.38
2018-07-05T23:07:55.613Z,1007.46
2018-07-05T23:08:55.523Z,1007.43
2018-07-05T23:09:55.432Z,1007.46
2018-07-05T23:10:55.337Z,1007.48
2018-07-05T23:11:55.234Z,1007.48
2018-07-05T23:12:55.146Z,1007.49